Sandy, Oregon
Current Conditions -  °F | °C
As of 3:53 AM on Saturday 20 Dec 2014 (Local Time) from KTTD Reporting Station
Light Rain Light Rain  
Wind Chill: 41°   Ceiling: 3700
Heat Index: 46°   Visibility: 10mi
Dew Point: 42°   Wind: 10mph
Humidity: 86%   Direction: 90°E
Pressure: 29.81"   Gusts: NA
Location:  45.4°N, 122.26°W
Report Text: KTTD 201153Z AUTO 09009KT 10SM -RA BKN037 OVC050 08/06 A2981 RMK AO2 SLP095 P0000 60008 70010 T00780056 10089 20078 58023
Loading
Personal Weather Stations






























Interactive Weather Map New forecast layout! Learn more

10-Day Weather Forecast

Advertisements
Track Severe Weather on mobile